sensor_id;sensor_type;location;lat;lon;timestamp;pressure;altitude;pressure_sealevel;temperature;humidity
49947;BME280;35839;48.662;13.300;2023-02-20T05:39:39;98276.03;;;10.01;100.00
49947;BME280;35839;48.662;13.300;2023-02-20T05:42:05;98274.31;;;9.79;100.00
49947;BME280;35839;48.662;13.300;2023-02-20T05:44:31;98275.38;;;9.33;100.00
49947;BME280;35839;48.662;13.300;2023-02-20T05:46:57;98274.94;;;9.71;100.00
49947;BME280;35839;48.662;13.300;2023-02-20T05:49:22;98270.31;;;9.63;100.00
49947;BME280;35839;48.662;13.300;2023-02-20T05:51:48;98268.59;;;8.96;100.00
49947;BME280;35839;48.662;13.300;2023-02-20T05:54:17;98275.31;;;9.55;100.00
49947;BME280;35839;48.662;13.300;2023-02-20T05:56:44;98278.44;;;9.26;100.00
49947;BME280;35839;48.662;13.300;2023-02-20T05:59:10;98275.69;;;9.50;100.00
49947;BME280;35839;48.662;13.300;2023-02-20T06:01:36;98275.75;;;9.71;100.00
49947;BME280;35839;48.662;13.300;2023-02-20T06:04:01;98284.22;;;9.64;100.00
49947;BME280;35839;48.662;13.300;2023-02-20T06:06:40;98279.66;;;9.00;100.00
49947;BME280;35839;48.662;13.300;2023-02-20T06:09:09;98277.53;;;8.12;100.00
49947;BME280;35839;48.662;13.300;2023-02-20T06:11:35;98276.22;;;8.17;100.00
49947;BME280;35839;48.662;13.300;2023-02-20T06:14:02;98285.75;;;8.30;100.00
49947;BME280;35839;48.662;13.300;2023-02-20T06:16:28;98282.34;;;9.32;100.00
49947;BME280;35839;48.662;13.300;2023-02-20T06:18:55;98288.63;;;9.63;100.00
49947;BME280;35839;48.662;13.300;2023-02-20T06:21:22;98298.25;;;8.37;100.00
49947;BME280;35839;48.662;13.300;2023-02-20T06:23:48;98297.81;;;9.46;100.00
49947;BME280;35839;48.662;13.300;2023-02-20T06:26:15;98309.31;;;8.88;100.00
49947;BME280;35839;48.662;13.300;2023-02-20T06:28:45;98306.25;;;9.16;100.00
49947;BME280;35839;48.662;13.300;2023-02-20T06:31:21;98312.19;;;9.18;100.00
49947;BME280;35839;48.662;13.300;2023-02-20T06:33:46;98315.25;;;8.90;100.00
49947;BME280;35839;48.662;13.300;2023-02-20T06:36:29;98315.22;;;9.80;100.00
49947;BME280;35839;48.662;13.300;2023-02-20T06:38:57;98299.44;;;9.70;100.00
49947;BME280;35839;48.662;13.300;2023-02-20T06:41:25;98310.00;;;9.80;100.00
49947;BME280;35839;48.662;13.300;2023-02-20T06:43:51;98306.22;;;9.50;100.00
49947;BME280;35839;48.662;13.300;2023-02-20T06:46:16;98306.94;;;9.29;100.00
49947;BME280;35839;48.662;13.300;2023-02-20T06:48:46;98311.88;;;9.89;100.00
49947;BME280;35839;48.662;13.300;2023-02-20T06:51:12;98318.13;;;9.54;100.00
49947;BME280;35839;48.662;13.300;2023-02-20T06:53:37;98322.75;;;9.50;100.00
49947;BME280;35839;48.662;13.300;2023-02-20T06:56:13;98318.84;;;10.00;100.00
49947;BME280;35839;48.662;13.300;2023-02-20T06:58:39;98324.25;;;9.76;100.00
49947;BME280;35839;48.662;13.300;2023-02-20T07:01:05;98326.03;;;9.86;100.00
49947;BME280;35839;48.662;13.300;2023-02-20T07:03:30;98325.03;;;9.99;100.00
49947;BME280;35839;48.662;13.300;2023-02-20T07:05:55;98330.78;;;10.25;100.00
49947;BME280;35839;48.662;13.300;2023-02-20T07:08:21;98334.88;;;10.06;100.00
49947;BME280;35839;48.662;13.300;2023-02-20T07:10:46;98335.44;;;10.53;100.00
49947;BME280;35839;48.662;13.300;2023-02-20T07:13:11;98338.78;;;10.55;100.00
49947;BME280;35839;48.662;13.300;2023-02-20T07:15:37;98340.31;;;10.79;100.00
49947;BME280;35839;48.662;13.300;2023-02-20T07:18:04;98334.69;;;11.05;100.00
49947;BME280;35839;48.662;13.300;2023-02-20T07:20:29;98336.44;;;10.94;100.00
49947;BME280;35839;48.662;13.300;2023-02-20T07:22:55;98330.19;;;11.37;100.00
49947;BME280;35839;48.662;13.300;2023-02-20T07:25:21;98330.66;;;10.26;100.00
49947;BME280;35839;48.662;13.300;2023-02-20T07:27:46;98333.41;;;10.36;100.00
49947;BME280;35839;48.662;13.300;2023-02-20T07:30:11;98337.06;;;9.90;100.00
49947;BME280;35839;48.662;13.300;2023-02-20T07:32:37;98325.00;;;10.21;100.00
49947;BME280;35839;48.662;13.300;2023-02-20T07:35:02;98325.69;;;9.80;100.00
49947;BME280;35839;48.662;13.300;2023-02-20T07:37:28;98338.75;;;9.91;100.00
49947;BME280;35839;48.662;13.300;2023-02-20T07:39:53;98325.75;;;10.44;100.00
49947;BME280;35839;48.662;13.300;2023-02-20T07:42:18;98329.66;;;10.06;100.00
49947;BME280;35839;48.662;13.300;2023-02-20T07:44:44;98327.44;;;10.34;100.00
49947;BME280;35839;48.662;13.300;2023-02-20T07:47:11;98327.09;;;10.27;100.00
49947;BME280;35839;48.662;13.300;2023-02-20T07:49:37;98330.97;;;10.12;100.00
49947;BME280;35839;48.662;13.300;2023-02-20T07:52:02;98335.13;;;10.15;100.00
49947;BME280;35839;48.662;13.300;2023-02-20T07:54:28;98322.16;;;10.45;100.00
49947;BME280;35839;48.662;13.300;2023-02-20T07:56:54;98319.06;;;10.51;100.00
49947;BME280;35839;48.662;13.300;2023-02-20T07:59:20;98316.03;;;10.35;100.00
49947;BME280;35839;48.662;13.300;2023-02-20T08:01:45;98318.22;;;10.51;100.00
49947;BME280;35839;48.662;13.300;2023-02-20T08:04:10;98310.09;;;10.22;100.00
49947;BME280;35839;48.662;13.300;2023-02-20T08:06:36;98312.75;;;10.10;100.00
49947;BME280;35839;48.662;13.300;2023-02-20T08:09:01;98309.00;;;10.99;100.00
49947;BME280;35839;48.662;13.300;2023-02-20T08:11:32;98314.59;;;10.63;100.00
49947;BME280;35839;48.662;13.300;2023-02-20T08:13:58;98306.91;;;10.50;100.00
49947;BME280;35839;48.662;13.300;2023-02-20T08:16:23;98302.38;;;10.94;100.00
49947;BME280;35839;48.662;13.300;2023-02-20T08:18:51;98316.94;;;9.36;100.00
49947;BME280;35839;48.662;13.300;2023-02-20T08:21:16;98306.88;;;8.62;100.00
49947;BME280;35839;48.662;13.300;2023-02-20T08:23:42;98306.78;;;10.20;100.00
49947;BME280;35839;48.662;13.300;2023-02-20T08:26:07;98307.03;;;10.17;100.00
49947;BME280;35839;48.662;13.300;2023-02-20T08:28:32;98304.81;;;10.01;100.00
49947;BME280;35839;48.662;13.300;2023-02-20T08:30:58;98303.19;;;10.21;100.00
49947;BME280;35839;48.662;13.300;2023-02-20T08:33:23;98309.59;;;10.28;100.00
49947;BME280;35839;48.662;13.300;2023-02-20T08:35:48;98302.63;;;10.49;100.00
49947;BME280;35839;48.662;13.300;2023-02-20T08:38:24;98321.78;;;11.13;100.00
49947;BME280;35839;48.662;13.300;2023-02-20T08:40:50;98320.47;;;11.28;100.00
49947;BME280;35839;48.662;13.300;2023-02-20T08:43:15;98321.91;;;10.90;100.00
49947;BME280;35839;48.662;13.300;2023-02-20T08:45:40;98326.91;;;10.51;100.00
49947;BME280;35839;48.662;13.300;2023-02-20T08:48:05;98336.25;;;10.86;100.00
49947;BME280;35839;48.662;13.300;2023-02-20T08:50:31;98320.56;;;11.17;100.00
49947;BME280;35839;48.662;13.300;2023-02-20T08:52:56;98316.91;;;11.39;100.00
49947;BME280;35839;48.662;13.300;2023-02-20T08:55:21;98310.50;;;12.22;100.00
49947;BME280;35839;48.662;13.300;2023-02-20T08:57:47;98296.03;;;11.68;100.00
49947;BME280;35839;48.662;13.300;2023-02-20T09:00:14;98303.03;;;11.17;100.00
49947;BME280;35839;48.662;13.300;2023-02-20T09:02:40;98299.31;;;9.60;100.00
49947;BME280;35839;48.662;13.300;2023-02-20T09:05:06;98292.66;;;11.16;100.00
49947;BME280;35839;48.662;13.300;2023-02-20T09:07:32;98287.88;;;10.69;100.00
49947;BME280;35839;48.662;13.300;2023-02-20T09:09:57;98285.38;;;10.15;100.00
49947;BME280;35839;48.662;13.300;2023-02-20T09:12:23;98288.97;;;10.46;100.00
49947;BME280;35839;48.662;13.300;2023-02-20T09:14:49;98289.53;;;9.85;100.00
49947;BME280;35839;48.662;13.300;2023-02-20T09:17:15;98287.00;;;10.27;100.00
49947;BME280;35839;48.662;13.300;2023-02-20T09:19:41;98286.59;;;11.15;100.00
49947;BME280;35839;48.662;13.300;2023-02-20T09:22:06;98274.91;;;10.68;100.00
49947;BME280;35839;48.662;13.300;2023-02-20T09:24:31;98284.88;;;10.53;100.00
49947;BME280;35839;48.662;13.300;2023-02-20T09:27:02;98274.59;;;10.61;100.00
49947;BME280;35839;48.662;13.300;2023-02-20T09:29:30;98267.50;;;10.73;100.00
49947;BME280;35839;48.662;13.300;2023-02-20T09:31:55;98274.31;;;11.16;100.00
49947;BME280;35839;48.662;13.300;2023-02-20T09:34:21;98252.88;;;11.42;100.00
49947;BME280;35839;48.662;13.300;2023-02-20T09:36:47;98250.34;;;11.30;100.00
49947;BME280;35839;48.662;13.300;2023-02-20T09:39:12;98238.97;;;11.51;100.00
49947;BME280;35839;48.662;13.300;2023-02-20T09:45:05;98243.91;;;10.73;100.00
49947;BME280;35839;48.662;13.300;2023-02-20T09:50:48;98229.97;;;10.93;100.00
49947;BME280;35839;48.662;13.300;2023-02-20T09:53:34;98247.09;;;11.48;100.00
49947;BME280;35839;48.662;13.300;2023-02-20T09:56:03;98259.50;;;10.32;100.00
49947;BME280;35839;48.662;13.300;2023-02-20T10:01:21;98245.53;;;10.95;100.00
49947;BME280;35839;48.662;13.300;2023-02-20T10:04:14;98248.72;;;11.29;100.00
49947;BME280;35839;48.662;13.300;2023-02-20T10:06:43;98239.03;;;12.09;100.00
49947;BME280;35839;48.662;13.300;2023-02-20T10:09:11;98227.69;;;12.95;99.04
49947;BME280;35839;48.662;13.300;2023-02-20T10:17:01;98243.06;;;11.94;100.00
49947;BME280;35839;48.662;13.300;2023-02-20T10:27:24;98215.66;;;12.35;98.11
49947;BME280;35839;48.662;13.300;2023-02-20T10:29:50;98227.94;;;12.54;97.10
49947;BME280;35839;48.662;13.300;2023-02-20T10:32:20;98235.31;;;12.02;97.14
49947;BME280;35839;48.662;13.300;2023-02-20T10:37:20;98209.19;;;12.77;93.59
49947;BME280;35839;48.662;13.300;2023-02-20T10:40:10;98194.88;;;12.99;89.15
49947;BME280;35839;48.662;13.300;2023-02-20T10:43:04;98194.47;;;13.49;86.33
49947;BME280;35839;48.662;13.300;2023-02-20T10:45:50;98194.06;;;12.98;88.38
49947;BME280;35839;48.662;13.300;2023-02-20T10:48:18;98180.75;;;13.00;87.47
49947;BME280;35839;48.662;13.300;2023-02-20T10:56:25;98172.63;;;13.21;85.70
49947;BME280;35839;48.662;13.300;2023-02-20T10:59:14;98178.16;;;13.27;84.38
49947;BME280;35839;48.662;13.300;2023-02-20T11:01:44;98174.72;;;13.17;83.89
49947;BME280;35839;48.662;13.300;2023-02-20T11:04:20;98179.16;;;13.62;85.61
49947;BME280;35839;48.662;13.300;2023-02-20T11:06:59;98160.09;;;14.22;83.39
49947;BME280;35839;48.662;13.300;2023-02-20T11:09:25;98159.75;;;14.69;79.71
49947;BME280;35839;48.662;13.300;2023-02-20T11:11:53;98151.19;;;14.49;79.09
49947;BME280;35839;48.662;13.300;2023-02-20T11:17:27;98151.16;;;14.15;79.34
49947;BME280;35839;48.662;13.300;2023-02-20T11:19:55;98143.53;;;14.12;80.38
49947;BME280;35839;48.662;13.300;2023-02-20T11:22:41;98146.34;;;14.10;78.25
49947;BME280;35839;48.662;13.300;2023-02-20T11:25:27;98139.91;;;13.51;82.64
49947;BME280;35839;48.662;13.300;2023-02-20T11:27:56;98128.81;;;15.30;70.86
49947;BME280;35839;48.662;13.300;2023-02-20T11:30:34;98129.63;;;15.31;71.95
49947;BME280;35839;48.662;13.300;2023-02-20T11:33:08;98123.63;;;14.62;72.72
49947;BME280;35839;48.662;13.300;2023-02-20T11:35:38;98121.66;;;14.38;76.60
49947;BME280;35839;48.662;13.300;2023-02-20T11:40:39;98111.22;;;14.02;81.85
49947;BME280;35839;48.662;13.300;2023-02-20T11:45:38;98097.00;;;13.33;79.16
49947;BME280;35839;48.662;13.300;2023-02-20T11:48:16;98106.81;;;12.85;80.86
49947;BME280;35839;48.662;13.300;2023-02-20T11:50:43;98089.38;;;13.83;79.33
49947;BME280;35839;48.662;13.300;2023-02-20T11:53:35;98079.16;;;14.06;75.89
49947;BME280;35839;48.662;13.300;2023-02-20T11:58:35;98069.69;;;14.90;69.37
49947;BME280;35839;48.662;13.300;2023-02-20T12:01:01;98076.50;;;12.63;78.04
49947;BME280;35839;48.662;13.300;2023-02-20T12:03:30;98068.00;;;12.97;82.91
49947;BME280;35839;48.662;13.300;2023-02-20T12:05:58;98063.16;;;13.56;82.48
49947;BME280;35839;48.662;13.300;2023-02-20T12:11:12;98051.53;;;13.84;72.49
49947;BME280;35839;48.662;13.300;2023-02-20T12:13:42;98045.03;;;14.57;71.96
49947;BME280;35839;48.662;13.300;2023-02-20T12:25:20;98022.34;;;14.64;69.46
49947;BME280;35839;48.662;13.300;2023-02-20T12:36:17;98019.94;;;14.95;61.89
49947;BME280;35839;48.662;13.300;2023-02-20T12:39:25;98015.16;;;14.99;62.72
49947;BME280;35839;48.662;13.300;2023-02-20T12:42:27;98010.63;;;14.24;66.79
49947;BME280;35839;48.662;13.300;2023-02-20T12:45:24;98019.91;;;14.37;65.48
49947;BME280;35839;48.662;13.300;2023-02-20T12:50:50;98007.09;;;15.83;59.69
49947;BME280;35839;48.662;13.300;2023-02-20T12:53:38;98004.72;;;14.30;65.92
49947;BME280;35839;48.662;13.300;2023-02-20T12:56:26;98012.94;;;13.67;67.74
49947;BME280;35839;48.662;13.300;2023-02-20T12:59:04;97997.63;;;13.44;66.47
49947;BME280;35839;48.662;13.300;2023-02-20T13:01:33;97996.13;;;14.28;62.92
49947;BME280;35839;48.662;13.300;2023-02-20T13:04:10;97983.75;;;14.12;63.53
49947;BME280;35839;48.662;13.300;2023-02-20T13:09:37;97973.88;;;14.57;62.67
49947;BME280;35839;48.662;13.300;2023-02-20T13:12:13;97970.94;;;14.85;61.65
49947;BME280;35839;48.662;13.300;2023-02-20T13:17:51;97955.97;;;15.43;60.12
49947;BME280;35839;48.662;13.300;2023-02-20T13:20:21;97955.97;;;15.26;62.90
49947;BME280;35839;48.662;13.300;2023-02-20T13:23:27;97945.75;;;14.23;65.41
49947;BME280;35839;48.662;13.300;2023-02-20T13:25:55;97944.88;;;14.06;66.63
49947;BME280;35839;48.662;13.300;2023-02-20T13:28:27;97955.66;;;15.37;64.05
49947;BME280;35839;48.662;13.300;2023-02-20T13:33:47;97945.41;;;14.77;60.91
49947;BME280;35839;48.662;13.300;2023-02-20T13:36:49;97939.66;;;15.31;60.19
49947;BME280;35839;48.662;13.300;2023-02-20T13:41:57;97931.25;;;15.44;60.80
49947;BME280;35839;48.662;13.300;2023-02-20T13:47:27;97932.41;;;15.16;61.31
49947;BME280;35839;48.662;13.300;2023-02-20T13:52:38;97923.38;;;15.99;60.33
49947;BME280;35839;48.662;13.300;2023-02-20T14:02:52;97913.94;;;15.41;57.22
49947;BME280;35839;48.662;13.300;2023-02-20T14:05:29;97918.25;;;15.01;59.20
49947;BME280;35839;48.662;13.300;2023-02-20T14:07:56;97907.03;;;14.83;58.99
49947;BME280;35839;48.662;13.300;2023-02-20T14:10:29;97901.25;;;14.12;61.82
49947;BME280;35839;48.662;13.300;2023-02-20T14:13:01;97915.09;;;14.73;60.73
49947;BME280;35839;48.662;13.300;2023-02-20T14:15:29;97902.75;;;14.82;58.34
49947;BME280;35839;48.662;13.300;2023-02-20T14:17:55;97894.50;;;15.17;56.95
49947;BME280;35839;48.662;13.300;2023-02-20T14:20:31;97897.78;;;15.28;56.94
49947;BME280;35839;48.662;13.300;2023-02-20T14:25:41;97886.56;;;15.34;58.29
49947;BME280;35839;48.662;13.300;2023-02-20T14:28:16;97887.22;;;15.28;56.26
49947;BME280;35839;48.662;13.300;2023-02-20T14:30:41;97889.16;;;14.52;60.58
49947;BME280;35839;48.662;13.300;2023-02-20T14:33:27;97894.25;;;14.37;60.71
49947;BME280;35839;48.662;13.300;2023-02-20T14:39:02;97885.22;;;15.46;58.01
49947;BME280;35839;48.662;13.300;2023-02-20T14:41:30;97876.22;;;15.80;56.78
49947;BME280;35839;48.662;13.300;2023-02-20T14:43:58;97875.72;;;14.71;59.05
49947;BME280;35839;48.662;13.300;2023-02-20T14:46:27;97872.16;;;14.22;61.09
49947;BME280;35839;48.662;13.300;2023-02-20T14:49:05;97871.69;;;14.34;61.96
49947;BME280;35839;48.662;13.300;2023-02-20T14:51:31;97874.56;;;14.74;60.88
49947;BME280;35839;48.662;13.300;2023-02-20T14:54:02;97873.41;;;14.77;62.34
49947;BME280;35839;48.662;13.300;2023-02-20T14:56:35;97866.28;;;15.26;60.25
49947;BME280;35839;48.662;13.300;2023-02-20T14:59:22;97863.19;;;16.18;58.04
49947;BME280;35839;48.662;13.300;2023-02-20T15:01:53;97859.03;;;15.92;57.47
49947;BME280;35839;48.662;13.300;2023-02-20T15:04:20;97856.19;;;14.23;60.99
49947;BME280;35839;48.662;13.300;2023-02-20T15:06:48;97854.81;;;14.78;60.35
49947;BME280;35839;48.662;13.300;2023-02-20T15:09:15;97843.19;;;15.36;57.92
49947;BME280;35839;48.662;13.300;2023-02-20T15:11:52;97841.78;;;14.68;61.26
49947;BME280;35839;48.662;13.300;2023-02-20T15:14:25;97841.41;;;15.12;60.53
49947;BME280;35839;48.662;13.300;2023-02-20T15:19:40;97838.38;;;17.41;50.86
49947;BME280;35839;48.662;13.300;2023-02-20T15:22:22;97825.53;;;19.05;47.94
49947;BME280;35839;48.662;13.300;2023-02-20T15:24:49;97832.41;;;18.99;43.71
49947;BME280;35839;48.662;13.300;2023-02-20T15:27:20;97817.19;;;19.77;41.16
49947;BME280;35839;48.662;13.300;2023-02-20T15:30:14;97814.09;;;20.55;42.67
49947;BME280;35839;48.662;13.300;2023-02-20T15:32:42;97821.69;;;20.45;39.21
49947;BME280;35839;48.662;13.300;2023-02-20T15:35:14;97804.44;;;21.61;40.11
49947;BME280;35839;48.662;13.300;2023-02-20T15:37:40;97814.34;;;20.54;38.07
49947;BME280;35839;48.662;13.300;2023-02-20T15:40:21;97815.50;;;20.25;38.32
49947;BME280;35839;48.662;13.300;2023-02-20T15:42:47;97804.00;;;18.93;41.41
49947;BME280;35839;48.662;13.300;2023-02-20T15:45:14;97810.94;;;19.22;41.06
49947;BME280;35839;48.662;13.300;2023-02-20T15:47:41;97803.34;;;17.09;45.37
49947;BME280;35839;48.662;13.300;2023-02-20T15:50:06;97800.72;;;16.48;47.37
49947;BME280;35839;48.662;13.300;2023-02-20T15:52:32;97802.09;;;16.59;47.92
49947;BME280;35839;48.662;13.300;2023-02-20T15:54:58;97794.28;;;15.09;51.13
49947;BME280;35839;48.662;13.300;2023-02-20T15:57:26;97795.81;;;14.63;51.59
49947;BME280;35839;48.662;13.300;2023-02-20T15:59:51;97798.59;;;14.53;52.27
49947;BME280;35839;48.662;13.300;2023-02-20T16:02:19;97800.75;;;14.41;52.82
49947;BME280;35839;48.662;13.300;2023-02-20T16:04:47;97790.38;;;14.72;52.01
49947;BME280;35839;48.662;13.300;2023-02-20T16:07:14;97786.75;;;14.32;52.55
49947;BME280;35839;48.662;13.300;2023-02-20T16:09:39;97788.03;;;14.28;55.47
49947;BME280;35839;48.662;13.300;2023-02-20T16:12:05;97790.03;;;14.34;54.45
49947;BME280;35839;48.662;13.300;2023-02-20T16:14:30;97786.91;;;14.47;54.01
49947;BME280;35839;48.662;13.300;2023-02-20T16:16:56;97792.34;;;14.29;54.98
49947;BME280;35839;48.662;13.300;2023-02-20T16:19:23;97790.88;;;13.68;57.26
49947;BME280;35839;48.662;13.300;2023-02-20T16:21:49;97794.94;;;13.54;59.76
49947;BME280;35839;48.662;13.300;2023-02-20T16:24:15;97789.19;;;13.59;59.66
49947;BME280;35839;48.662;13.300;2023-02-20T16:26:43;97783.28;;;13.22;61.11
49947;BME280;35839;48.662;13.300;2023-02-20T16:29:21;97787.28;;;13.69;59.11
49947;BME280;35839;48.662;13.300;2023-02-20T16:34:27;97779.88;;;13.64;58.55
49947;BME280;35839;48.662;13.300;2023-02-20T16:36:53;97770.94;;;14.41;56.97
49947;BME280;35839;48.662;13.300;2023-02-20T16:39:19;97773.91;;;14.29;57.13
49947;BME280;35839;48.662;13.300;2023-02-20T16:41:44;97770.69;;;13.77;59.12
49947;BME280;35839;48.662;13.300;2023-02-20T16:44:34;97768.56;;;13.80;60.06
49947;BME280;35839;48.662;13.300;2023-02-20T16:47:03;97770.06;;;13.91;58.15
49947;BME280;35839;48.662;13.300;2023-02-20T16:49:28;97763.81;;;13.92;58.94
49947;BME280;35839;48.662;13.300;2023-02-20T16:51:53;97760.53;;;13.39;60.62
49947;BME280;35839;48.662;13.300;2023-02-20T16:54:26;97773.41;;;13.59;59.56
49947;BME280;35839;48.662;13.300;2023-02-20T16:56:52;97769.38;;;13.30;60.02
49947;BME280;35839;48.662;13.300;2023-02-20T16:59:18;97775.97;;;13.08;60.64
49947;BME280;35839;48.662;13.300;2023-02-20T17:01:46;97773.69;;;13.13;61.98
49947;BME280;35839;48.662;13.300;2023-02-20T17:04:11;97768.28;;;13.15;61.31
49947;BME280;35839;48.662;13.300;2023-02-20T17:06:38;97777.63;;;12.83;62.59
49947;BME280;35839;48.662;13.300;2023-02-20T17:09:04;97776.13;;;12.54;64.36
49947;BME280;35839;48.662;13.300;2023-02-20T17:11:29;97777.72;;;12.99;62.69
49947;BME280;35839;48.662;13.300;2023-02-20T17:13:54;97770.91;;;12.89;62.52
49947;BME280;35839;48.662;13.300;2023-02-20T17:16:19;97777.59;;;12.31;65.51
49947;BME280;35839;48.662;13.300;2023-02-20T17:18:45;97778.34;;;12.67;64.47
49947;BME280;35839;48.662;13.300;2023-02-20T17:21:10;97778.81;;;12.44;64.06
49947;BME280;35839;48.662;13.300;2023-02-20T17:23:36;97774.31;;;12.81;63.13
49947;BME280;35839;48.662;13.300;2023-02-20T17:26:01;97774.31;;;13.33;60.69
49947;BME280;35839;48.662;13.300;2023-02-20T17:28:30;97772.72;;;13.48;59.11
49947;BME280;35839;48.662;13.300;2023-02-20T17:30:55;97774.09;;;12.48;64.04
49947;BME280;35839;48.662;13.300;2023-02-20T17:33:21;97773.50;;;12.54;63.62
49947;BME280;35839;48.662;13.300;2023-02-20T17:35:47;97772.59;;;12.46;63.30
49947;BME280;35839;48.662;13.300;2023-02-20T17:38:12;97781.44;;;12.44;62.57
49947;BME280;35839;48.662;13.300;2023-02-20T17:40:38;97782.16;;;12.29;64.84
49947;BME280;35839;48.662;13.300;2023-02-20T17:43:06;97784.25;;;12.43;63.58
49947;BME280;35839;48.662;13.300;2023-02-20T17:45:31;97788.44;;;12.36;63.67
49947;BME280;35839;48.662;13.300;2023-02-20T17:47:57;97781.00;;;11.68;65.32
49947;BME280;35839;48.662;13.300;2023-02-20T17:50:23;97784.47;;;12.32;63.48
49947;BME280;35839;48.662;13.300;2023-02-20T17:52:52;97772.56;;;12.19;64.51
49947;BME280;35839;48.662;13.300;2023-02-20T17:55:23;97772.94;;;11.33;68.34
49947;BME280;35839;48.662;13.300;2023-02-20T17:57:48;97772.13;;;11.78;67.13
49947;BME280;35839;48.662;13.300;2023-02-20T18:00:15;97776.06;;;12.28;64.83
49947;BME280;35839;48.662;13.300;2023-02-20T18:02:41;97780.09;;;11.31;68.72
49947;BME280;35839;48.662;13.300;2023-02-20T18:05:07;97775.50;;;11.43;68.66
49947;BME280;35839;48.662;13.300;2023-02-20T18:07:32;97772.06;;;11.43;67.95
49947;BME280;35839;48.662;13.300;2023-02-20T18:09:57;97769.84;;;12.11;66.00
49947;BME280;35839;48.662;13.300;2023-02-20T18:12:24;97770.69;;;11.94;65.19
49947;BME280;35839;48.662;13.300;2023-02-20T18:14:50;97771.44;;;11.76;65.95
49947;BME280;35839;48.662;13.300;2023-02-20T18:17:15;97775.56;;;11.61;67.11
49947;BME280;35839;48.662;13.300;2023-02-20T18:19:41;97773.31;;;11.38;66.30
49947;BME280;35839;48.662;13.300;2023-02-20T18:22:07;97770.91;;;11.17;67.12
49947;BME280;35839;48.662;13.300;2023-02-20T18:24:32;97764.38;;;11.31;67.54
49947;BME280;35839;48.662;13.300;2023-02-20T18:26:59;97775.94;;;11.66;66.25
49947;BME280;35839;48.662;13.300;2023-02-20T18:29:24;97765.81;;;11.16;68.16
49947;BME280;35839;48.662;13.300;2023-02-20T18:31:50;97779.16;;;10.85;71.99
49947;BME280;35839;48.662;13.300;2023-02-20T18:34:21;97761.72;;;9.98;79.67
49947;BME280;35839;48.662;13.300;2023-02-20T18:36:47;97759.03;;;9.40;85.19
49947;BME280;35839;48.662;13.300;2023-02-20T18:39:14;97757.91;;;9.02;90.08
49947;BME280;35839;48.662;13.300;2023-02-20T18:41:40;97767.63;;;9.81;83.62
49947;BME280;35839;48.662;13.300;2023-02-20T18:44:07;97759.94;;;10.08;80.38
49947;BME280;35839;48.662;13.300;2023-02-20T18:46:35;97752.78;;;10.49;79.18
49947;BME280;35839;48.662;13.300;2023-02-20T18:49:01;97767.38;;;10.13;80.09
49947;BME280;35839;48.662;13.300;2023-02-20T18:51:39;97767.66;;;10.49;76.74
49947;BME280;35839;48.662;13.300;2023-02-20T18:54:07;97761.59;;;10.48;77.81
49947;BME280;35839;48.662;13.300;2023-02-20T18:56:34;97769.81;;;10.73;75.50
49947;BME280;35839;48.662;13.300;2023-02-20T18:59:03;97765.44;;;10.64;75.37
49947;BME280;35839;48.662;13.300;2023-02-20T19:01:29;97755.94;;;9.85;79.05
49947;BME280;35839;48.662;13.300;2023-02-20T19:03:54;97760.50;;;10.41;76.87
49947;BME280;35839;48.662;13.300;2023-02-20T19:06:34;97755.25;;;10.12;78.50
49947;BME280;35839;48.662;13.300;2023-02-20T19:09:09;97752.22;;;9.97;79.71
49947;BME280;35839;48.662;13.300;2023-02-20T19:11:35;97756.09;;;10.12;79.38
49947;BME280;35839;48.662;13.300;2023-02-20T19:14:00;97754.63;;;9.40;81.19
49947;BME280;35839;48.662;13.300;2023-02-20T19:16:26;97760.28;;;9.05;85.58
49947;BME280;35839;48.662;13.300;2023-02-20T19:18:51;97752.72;;;9.52;84.61
49947;BME280;35839;48.662;13.300;2023-02-20T19:21:18;97756.78;;;9.25;85.70
49947;BME280;35839;48.662;13.300;2023-02-20T19:23:44;97752.13;;;8.98;86.82
49947;BME280;35839;48.662;13.300;2023-02-20T19:26:10;97749.53;;;8.47;90.27
49947;BME280;35839;48.662;13.300;2023-02-20T19:28:35;97751.03;;;8.70;89.81
49947;BME280;35839;48.662;13.300;2023-02-20T19:31:01;97747.22;;;8.74;89.79
49947;BME280;35839;48.662;13.300;2023-02-20T19:33:27;97761.78;;;8.77;89.43
49947;BME280;35839;48.662;13.300;2023-02-20T19:35:53;97764.94;;;9.11;89.02
49947;BME280;35839;48.662;13.300;2023-02-20T19:38:19;97759.00;;;8.99;89.42
49947;BME280;35839;48.662;13.300;2023-02-20T19:40:45;97760.03;;;8.87;89.80
49947;BME280;35839;48.662;13.300;2023-02-20T19:43:10;97749.97;;;9.54;85.57
49947;BME280;35839;48.662;13.300;2023-02-20T19:45:36;97753.28;;;8.84;87.97
49947;BME280;35839;48.662;13.300;2023-02-20T19:48:01;97754.06;;;9.06;86.29
49947;BME280;35839;48.662;13.300;2023-02-20T19:50:27;97757.03;;;9.22;84.27
49947;BME280;35839;48.662;13.300;2023-02-20T19:52:55;97757.94;;;9.52;82.98
49947;BME280;35839;48.662;13.300;2023-02-20T19:55:20;97760.13;;;9.47;82.19
49947;BME280;35839;48.662;13.300;2023-02-20T19:57:45;97753.09;;;8.76;84.79
49947;BME280;35839;48.662;13.300;2023-02-20T20:00:13;97752.03;;;8.16;94.63
49947;BME280;35839;48.662;13.300;2023-02-20T20:02:42;97764.34;;;7.81;92.39
49947;BME280;35839;48.662;13.300;2023-02-20T20:05:07;97758.13;;;7.50;97.42
49947;BME280;35839;48.662;13.300;2023-02-20T20:07:33;97755.97;;;7.67;98.91
49947;BME280;35839;48.662;13.300;2023-02-20T20:09:58;97764.03;;;7.75;98.96
49947;BME280;35839;48.662;13.300;2023-02-20T20:12:23;97760.41;;;7.87;98.47
49947;BME280;35839;48.662;13.300;2023-02-20T20:15:07;97761.72;;;7.93;97.67
49947;BME280;35839;48.662;13.300;2023-02-20T20:17:33;97759.53;;;8.41;94.98